Time;durP1;ratioP1;P1;durP2;ratioP2;P2;SDS_P1;SDS_P2;PMS_P1;PMS_P2;Temp;Humidity;BMP_temperature;BMP_pressure;BME280_temperature;BME280_humidity;BME280_pressure;Samples;Min_cycle;Max_cycle;Signal;HPM_P1;HPM_P2
2023/01/04 00:00:49;;;;;;;1.77;0.80;;;;;;;2.31;100.00;98482.31;5140717;28;20404;-61
2023/01/04 00:03:15;;;;;;;0.45;0.45;;;;;;;2.21;100.00;98494.31;5140709;28;20464;-65
2023/01/04 00:05:42;;;;;;;0.68;0.50;;;;;;;2.35;100.00;98502.97;5140353;28;20082;-62
2023/01/04 00:08:08;;;;;;;0.85;0.60;;;;;;;2.31;100.00;98510.16;5140751;27;20111;-64
2023/01/04 00:10:35;;;;;;;1.10;0.57;;;;;;;2.24;100.00;98534.22;5140393;28;20055;-63
2023/01/04 00:13:01;;;;;;;0.50;0.50;;;;;;;2.30;100.00;98526.69;5140807;28;20077;-64
2023/01/04 00:15:27;;;;;;;1.35;0.50;;;;;;;2.19;100.00;98539.81;5140209;28;20327;-61
2023/01/04 00:17:53;;;;;;;0.30;0.30;;;;;;;2.47;100.00;98528.56;5140202;28;20064;-66
2023/01/04 00:20:20;;;;;;;0.40;0.40;;;;;;;2.45;100.00;98547.00;5140552;28;20089;-62
2023/01/04 00:22:47;;;;;;;0.50;0.50;;;;;;;2.23;100.00;98539.94;5140407;28;20412;-63
2023/01/04 00:25:13;;;;;;;0.50;0.50;;;;;;;2.14;100.00;98537.28;5140219;28;20426;-63
2023/01/04 00:27:39;;;;;;;0.50;0.50;;;;;;;2.06;100.00;98544.28;5140112;28;20089;-61
2023/01/04 00:30:07;;;;;;;0.73;0.60;;;;;;;2.27;100.00;98533.56;5140324;28;20046;-64
2023/01/04 00:32:33;;;;;;;1.58;1.08;;;;;;;2.23;100.00;98526.41;5140124;28;20053;-63
2023/01/04 00:34:59;;;;;;;10.82;5.38;;;;;;;2.11;100.00;98519.78;5140310;28;20415;-63
2023/01/04 00:37:26;;;;;;;0.60;0.60;;;;;;;2.16;100.00;98515.31;5139954;28;20142;-65
2023/01/04 00:39:53;;;;;;;0.52;0.52;;;;;;;2.07;100.00;98518.88;5140305;28;20047;-63
2023/01/04 00:42:19;;;;;;;0.65;0.65;;;;;;;2.27;100.00;98514.66;5139950;28;20130;-64
2023/01/04 00:44:45;;;;;;;0.50;0.50;;;;;;;2.07;100.00;98516.16;5140344;28;20051;-63
2023/01/04 00:47:12;;;;;;;0.60;0.60;;;;;;;2.35;100.00;98518.41;5140013;28;20051;-64
2023/01/04 00:49:38;;;;;;;1.15;0.60;;;;;;;2.39;100.00;98529.38;5140035;28;20460;-63
2023/01/04 00:52:05;;;;;;;0.75;0.63;;;;;;;2.37;100.00;98521.59;5139873;28;20051;-64
2023/01/04 00:54:31;;;;;;;1.50;0.80;;;;;;;2.20;100.00;98518.97;5139906;28;20317;-65
2023/01/04 00:57:00;;;;;;;1.95;0.80;;;;;;;2.19;100.00;98525.50;5139979;28;20058;-62
2023/01/04 00:59:26;;;;;;;0.57;0.57;;;;;;;2.18;100.00;98524.69;5139472;28;20055;-63
2023/01/04 01:01:53;;;;;;;0.60;0.60;;;;;;;2.04;100.00;98524.91;5139808;28;20047;-62
2023/01/04 01:04:21;;;;;;;1.45;0.70;;;;;;;2.18;100.00;98535.50;5139521;28;20058;-63
2023/01/04 01:06:48;;;;;;;0.65;0.65;;;;;;;2.25;100.00;98535.00;5138910;27;20327;-64
2023/01/04 01:09:15;;;;;;;0.60;0.60;;;;;;;2.10;100.00;98528.25;5139406;28;20500;-64
2023/01/04 01:11:42;;;;;;;2.05;0.70;;;;;;;2.16;100.00;98545.84;5139930;27;20079;-62
2023/01/04 01:14:16;;;;;;;0.88;0.88;;;;;;;2.30;100.00;98549.16;5139350;27;20138;-63
2023/01/04 01:16:42;;;;;;;4.35;0.80;;;;;;;2.15;100.00;98559.72;5139301;28;20062;-63
2023/01/04 01:19:08;;;;;;;1.35;0.70;;;;;;;2.04;100.00;98561.97;5139632;27;20058;-65
2023/01/04 01:21:36;;;;;;;0.55;0.55;;;;;;;2.16;100.00;98586.41;5139440;28;20133;-63
2023/01/04 01:24:03;;;;;;;2.00;0.60;;;;;;;2.16;100.00;98608.06;5139180;28;20108;-65
2023/01/04 01:26:29;;;;;;;0.47;0.47;;;;;;;2.11;100.00;98606.31;5139270;28;20123;-63
2023/01/04 01:28:56;;;;;;;0.70;0.70;;;;;;;2.17;100.00;98603.47;5139497;28;20043;-64
2023/01/04 01:31:24;;;;;;;2.55;0.63;;;;;;;2.24;100.00;98603.75;5139128;28;20111;-63
2023/01/04 01:33:52;;;;;;;0.85;0.50;;;;;;;2.08;100.00;98587.25;5139121;27;20047;-65
2023/01/04 01:36:21;;;;;;;0.55;0.55;;;;;;;2.15;100.00;98584.06;5139149;28;20047;-62
2023/01/04 01:38:50;;;;;;;0.68;0.68;;;;;;;2.10;100.00;98577.72;5139469;28;20049;-62
2023/01/04 01:41:19;;;;;;;0.70;0.70;;;;;;;1.85;100.00;98565.84;5139239;28;20382;-65
2023/01/04 01:43:52;;;;;;;1.10;1.00;;;;;;;1.75;100.00;98598.59;5138892;28;20062;-62
2023/01/04 01:46:26;;;;;;;1.17;0.90;;;;;;;1.69;100.00;98621.50;5139216;28;20058;-65
2023/01/04 01:48:58;;;;;;;2.10;1.08;;;;;;;1.74;100.00;98661.88;5138935;28;20108;-64
2023/01/04 01:51:26;;;;;;;1.55;1.23;;;;;;;1.67;100.00;98650.75;5139110;28;20051;-65
2023/01/04 01:53:58;;;;;;;2.05;0.90;;;;;;;1.87;100.00;98660.13;5138818;28;20043;-63
2023/01/04 01:56:28;;;;;;;0.90;0.90;;;;;;;1.86;100.00;98656.59;5139104;28;20427;-65
2023/01/04 01:58:57;;;;;;;1.45;0.90;;;;;;;1.67;100.00;98674.25;5138563;28;20143;-63
2023/01/04 02:01:24;;;;;;;2.55;1.20;;;;;;;1.91;100.00;98693.50;5138987;27;20078;-62
2023/01/04 02:03:51;;;;;;;0.70;0.70;;;;;;;1.95;100.00;98693.66;5138874;28;20099;-65
2023/01/04 02:06:23;;;;;;;1.30;0.80;;;;;;;1.88;100.00;98699.56;5138477;28;20089;-63
2023/01/04 02:08:50;;;;;;;2.15;0.85;;;;;;;1.99;100.00;98706.22;5138822;28;20073;-66
2023/01/04 02:11:16;;;;;;;0.98;0.90;;;;;;;1.77;100.00;98709.91;5138674;28;20061;-64
2023/01/04 02:16:39;;;;;;;1.23;1.00;;;;;;;1.87;100.00;98706.09;5138478;28;20343;-63
2023/01/04 02:19:27;;;;;;;0.90;0.90;;;;;;;1.91;100.00;98706.25;5138651;27;20439;-63
2023/01/04 02:22:24;;;;;;;0.77;0.77;;;;;;;1.74;100.00;98726.75;5138586;28;20051;-63
2023/01/04 02:25:13;;;;;;;0.70;0.70;;;;;;;1.62;100.00;98737.38;5138227;28;20062;-62
2023/01/04 02:27:47;;;;;;;0.93;0.93;;;;;;;1.80;100.00;98716.56;5138641;27;20063;-64
2023/01/04 02:30:28;;;;;;;;;;;;;;;1.85;100.00;98738.03;5138573;28;20054;-64
2023/01/04 02:33:12;;;;;;;0.70;0.70;;;;;;;1.84;100.00;98733.75;5138498;28;19935;-64
2023/01/04 02:35:46;;;;;;;0.60;0.60;;;;;;;2.02;100.00;98712.91;5138177;28;20057;-62
2023/01/04 02:38:15;;;;;;;;;;;;;;;1.92;100.00;98689.69;5138469;28;20061;-65
2023/01/04 02:40:51;;;;;;;5.05;0.75;;;;;;;1.80;100.00;98725.47;5138067;28;19923;-65
2023/01/04 02:46:16;;;;;;;1.27;0.50;;;;;;;1.71;100.00;98735.47;5138419;28;20312;-62
2023/01/04 02:51:31;;;;;;;0.60;0.60;;;;;;;1.60;100.00;98764.72;5137968;28;20058;-64
2023/01/04 02:54:02;;;;;;;0.82;0.70;;;;;;;1.75;100.00;98741.03;5138176;28;20062;-63
2023/01/04 02:56:43;;;;;;;0.80;0.80;;;;;;;1.53;100.00;98742.75;5137827;28;20054;-63
2023/01/04 02:59:28;;;;;;;0.60;0.60;;;;;;;1.69;100.00;98751.19;5138083;28;20058;-64
2023/01/04 03:07:57;;;;;;;1.55;1.30;;;;;;;1.52;100.00;98741.16;5137993;28;20329;-64
2023/01/04 03:10:33;;;;;;;2.08;0.80;;;;;;;1.70;100.00;98744.72;5137604;28;20047;-65
2023/01/04 03:13:07;;;;;;;0.70;0.70;;;;;;;1.65;100.00;98756.44;5137942;28;20138;-63
2023/01/04 03:15:37;;;;;;;0.83;0.83;;;;;;;1.57;100.00;98794.28;5137435;28;20051;-65
2023/01/04 03:18:11;;;;;;;0.82;0.82;;;;;;;1.32;100.00;98834.38;5137608;28;20051;-62
2023/01/04 03:20:40;;;;;;;0.77;0.77;;;;;;;1.50;100.00;98886.59;5137471;28;20050;-65
2023/01/04 03:37:13;;;;;;;0.80;0.80;;;;;;;1.14;100.00;98784.91;5137243;28;20443;-62
2023/01/04 03:48:28;;;;;;;1.40;1.17;;;;;;;1.31;100.00;98762.56;5137087;27;20054;-65
2023/01/04 03:51:03;;;;;;;0.88;0.88;;;;;;;1.80;100.00;98759.78;5136814;28;20059;-63
2023/01/04 03:53:31;;;;;;;;;;;;;;;1.61;100.00;98760.09;5137733;28;20054;-63
2023/01/04 03:55:59;;;;;;;0.60;0.60;;;;;;;1.62;100.00;98773.28;5136796;28;20026;-63
2023/01/04 03:58:26;;;;;;;0.75;0.75;;;;;;;1.85;100.00;98819.13;5137328;27;20051;-64
2023/01/04 04:00:52;;;;;;;1.08;0.98;;;;;;;2.00;100.00;98834.06;5137140;28;20372;-64
2023/01/04 04:03:19;;;;;;;0.95;0.90;;;;;;;1.99;100.00;98830.59;5136824;28;20439;-65
2023/01/04 04:08:30;;;;;;;1.27;0.95;;;;;;;1.78;100.00;98900.66;5136941;28;20058;-63
2023/01/04 04:11:28;;;;;;;1.63;0.80;;;;;;;1.81;100.00;98928.97;5137157;28;20055;-62
2023/01/04 04:13:46;;;;;;;2.63;0.98;;;;;;;1.46;100.00;98936.13;5136632;28;20093;-65
2023/01/04 04:16:12;;;;;;;0.88;0.82;;;;;;;1.55;100.00;98932.38;5137128;28;20080;-64
2023/01/04 04:18:39;;;;;;;0.70;0.70;;;;;;;1.45;100.00;98896.72;5136721;27;20047;-62
2023/01/04 04:21:05;;;;;;;1.20;1.10;;;;;;;1.23;100.00;98936.16;5136809;28;20119;-63
2023/01/04 04:23:32;;;;;;;0.95;0.95;;;;;;;1.30;100.00;98923.03;5136804;28;20400;-65
2023/01/04 04:25:59;;;;;;;2.72;0.98;;;;;;;1.34;100.00;98875.38;5136401;28;20055;-64
2023/01/04 04:28:25;;;;;;;0.75;0.75;;;;;;;1.07;100.00;98802.69;5136621;28;20097;-64
2023/01/04 04:30:52;;;;;;;0.82;0.82;;;;;;;1.00;100.00;98829.28;5136437;28;20059;-62
2023/01/04 04:33:18;;;;;;;0.82;0.70;;;;;;;0.83;100.00;98809.19;5136816;28;20304;-62
2023/01/04 04:35:44;;;;;;;1.08;0.90;;;;;;;1.15;100.00;98840.50;5136297;28;20078;-65
2023/01/04 04:38:10;;;;;;;0.55;0.55;;;;;;;1.24;100.00;98820.84;5136685;28;20043;-62
2023/01/04 04:43:23;;;;;;;0.93;0.93;;;;;;;1.16;100.00;98828.59;5139420;28;20530;-64
2023/01/04 04:45:49;;;;;;;1.48;0.80;;;;;;;1.08;100.00;98815.06;5139635;28;20099;-64
2023/01/04 04:48:17;;;;;;;2.25;1.38;;;;;;;1.13;100.00;98841.91;5139925;28;20158;-64
2023/01/04 04:50:44;;;;;;;1.23;1.10;;;;;;;0.89;100.00;98886.22;5139783;28;20317;-65
2023/01/04 04:53:10;;;;;;;1.17;1.10;;;;;;;0.99;100.00;98890.59;5139535;28;20043;-62
2023/01/04 04:55:36;;;;;;;1.05;1.02;;;;;;;0.96;100.00;98885.78;5139947;28;20105;-65
2023/01/04 04:58:03;;;;;;;6.30;3.53;;;;;;;0.93;100.00;98886.41;5139602;28;20389;-62
2023/01/04 05:00:29;;;;;;;1.63;1.20;;;;;;;0.92;100.00;98874.81;5139731;28;20133;-64
2023/01/04 05:02:58;;;;;;;3.08;1.20;;;;;;;0.70;100.00;98905.31;5139334;28;20167;-64
2023/01/04 05:05:24;;;;;;;0.80;0.80;;;;;;;0.73;100.00;98963.25;5140466;28;20047;-71
2023/01/04 05:07:50;;;;;;;0.93;0.93;;;;;;;0.67;100.00;98986.06;5139521;28;20059;-63
2023/01/04 05:10:17;;;;;;;0.80;0.80;;;;;;;0.86;100.00;99013.69;5140263;28;20404;-67
2023/01/04 05:12:58;;;;;;;4.43;1.90;;;;;;;0.94;100.00;99025.69;5139602;27;20100;-66
2023/01/04 05:15:26;;;;;;;4.85;1.02;;;;;;;0.97;100.00;99003.47;5139605;28;20055;-62
2023/01/04 05:17:52;;;;;;;0.98;0.80;;;;;;;1.08;100.00;98994.03;5139770;28;20051;-70
2023/01/04 05:20:18;;;;;;;1.45;1.02;;;;;;;1.22;100.00;98972.38;5139510;28;20057;-65
2023/01/04 05:22:45;;;;;;;0.90;0.80;;;;;;;1.27;100.00;98923.66;5139694;28;20139;-68
2023/01/04 05:25:11;;;;;;;1.58;1.15;;;;;;;1.38;100.00;98878.25;5139353;28;20320;-65
2023/01/04 05:27:37;;;;;;;0.95;0.80;;;;;;;1.33;100.00;98841.38;5139518;28;20062;-67
2023/01/04 05:32:50;;;;;;;0.80;0.80;;;;;;;1.47;100.00;98771.03;5139987;28;20078;-69
2023/01/04 05:35:16;;;;;;;0.80;0.80;;;;;;;1.58;100.00;98725.59;5139471;27;20055;-65
2023/01/04 05:37:42;;;;;;;1.85;1.25;;;;;;;1.32;100.00;98693.16;5139580;28;20069;-67
2023/01/04 05:40:10;;;;;;;0.80;0.80;;;;;;;1.39;100.00;98680.75;5139694;28;20100;-64
2023/01/04 05:42:36;;;;;;;1.08;1.08;;;;;;;1.30;100.00;98692.66;5139551;28;20050;-73
2023/01/04 05:45:03;;;;;;;0.85;0.85;;;;;;;1.23;100.00;98690.41;5139256;27;20359;-66
2023/01/04 05:47:29;;;;;;;0.68;0.68;;;;;;;1.21;100.00;98700.75;5138655;28;20432;-64
2023/01/04 05:49:56;;;;;;;1.75;0.98;;;;;;;1.26;100.00;98699.81;5138942;27;20469;-68
2023/01/04 05:52:22;;;;;;;0.75;0.75;;;;;;;0.97;100.00;98703.06;5138533;28;20047;-66
2023/01/04 05:54:49;;;;;;;0.88;0.85;;;;;;;1.02;100.00;98708.31;5138649;28;20053;-66
2023/01/04 05:57:15;;;;;;;0.95;0.80;;;;;;;0.95;100.00;98716.88;5138521;28;20146;-64
2023/01/04 05:59:42;;;;;;;0.50;0.50;;;;;;;0.94;100.00;98718.78;5138930;28;20408;-63
2023/01/04 06:02:14;;;;;;;3.38;1.13;;;;;;;0.77;100.00;98717.88;5138276;28;20047;-68
2023/01/04 06:04:41;;;;;;;0.80;0.80;;;;;;;0.92;100.00;98706.69;5138616;28;20120;-63
2023/01/04 06:07:08;;;;;;;1.60;0.90;;;;;;;0.76;100.00;98713.63;5138278;28;20142;-67
2023/01/04 06:09:34;;;;;;;2.35;1.30;;;;;;;0.86;100.00;98713.34;5138758;28;20110;-63
2023/01/04 06:12:00;;;;;;;1.45;1.05;;;;;;;0.96;100.00;98721.16;5138247;28;20051;-68
2023/01/04 06:14:26;;;;;;;0.80;0.80;;;;;;;0.78;100.00;98717.59;5138376;28;20172;-64
2023/01/04 06:16:53;;;;;;;0.80;0.80;;;;;;;0.83;100.00;98728.25;5138667;27;20051;-67
2023/01/04 06:19:19;;;;;;;1.10;0.93;;;;;;;0.77;100.00;98736.78;5138184;28;20188;-64
2023/01/04 06:21:45;;;;;;;0.95;0.95;;;;;;;0.71;100.00;98738.84;5138352;27;20051;-66
2023/01/04 06:24:12;;;;;;;2.05;1.15;;;;;;;0.97;100.00;98738.97;5137993;28;20047;-66
2023/01/04 06:26:38;;;;;;;1.70;1.30;;;;;;;1.03;100.00;98732.28;5138393;28;20058;-69
2023/01/04 06:29:05;;;;;;;3.80;1.48;;;;;;;1.02;100.00;98738.81;5138034;28;20051;-64
2023/01/04 06:31:32;;;;;;;1.70;1.10;;;;;;;1.03;100.00;98737.69;5138266;28;20073;-70
2023/01/04 06:33:58;;;;;;;1.40;1.30;;;;;;;1.10;100.00;98748.84;5137975;28;20425;-74
2023/01/04 06:36:25;;;;;;;2.15;1.20;;;;;;;1.12;100.00;98735.81;5137919;28;20393;-66
2023/01/04 06:38:51;;;;;;;2.97;1.50;;;;;;;1.07;100.00;98740.59;5138349;28;20124;-66
2023/01/04 06:41:18;;;;;;;1.60;1.10;;;;;;;0.91;100.00;98751.78;5137910;28;20047;-69
2023/01/04 06:43:45;;;;;;;1.45;1.35;;;;;;;1.02;100.00;98752.31;5138343;27;20054;-68
2023/01/04 06:46:11;;;;;;;1.50;1.40;;;;;;;0.90;100.00;98742.09;5137801;28;20083;-71
2023/01/04 06:48:37;;;;;;;1.30;1.00;;;;;;;0.98;100.00;98743.25;5138200;28;20358;-68
2023/01/04 06:51:04;;;;;;;2.03;1.27;;;;;;;1.00;100.00;98753.72;5138119;28;20444;-70
2023/01/04 06:53:30;;;;;;;2.15;1.33;;;;;;;1.07;100.00;98743.28;5138199;27;20051;-69
2023/01/04 06:55:57;;;;;;;1.23;1.13;;;;;;;1.00;100.00;98740.22;5137774;28;20061;-66
2023/01/04 06:58:24;;;;;;;1.33;1.23;;;;;;;0.88;100.00;98738.91;5138221;28;20130;-72
2023/01/04 07:00:51;;;;;;;1.40;1.30;;;;;;;0.87;100.00;98750.81;5137522;28;20076;-66
2023/01/04 07:03:17;;;;;;;2.05;1.40;;;;;;;0.98;100.00;98759.44;5137618;28;20055;-66
2023/01/04 07:05:44;;;;;;;3.65;1.67;;;;;;;1.11;100.00;98766.63;5136726;27;20132;-68
2023/01/04 07:08:11;;;;;;;2.78;1.52;;;;;;;1.72;100.00;98795.72;5137564;28;20046;-66
2023/01/04 07:10:37;;;;;;;2.45;1.48;;;;;;;1.90;100.00;98778.44;5137609;28;20043;-66
2023/01/04 07:13:04;;;;;;;1.40;1.30;;;;;;;1.63;100.00;98752.47;5137225;28;20051;-65
2023/01/04 07:15:31;;;;;;;1.73;1.63;;;;;;;1.36;100.00;98737.31;5137486;28;20104;-68
2023/01/04 07:17:58;;;;;;;4.10;1.20;;;;;;;1.23;100.00;98739.03;5137265;28;20107;-65
2023/01/04 07:20:24;;;;;;;1.58;1.48;;;;;;;1.33;100.00;98737.94;5137873;28;20461;-70
2023/01/04 07:22:50;;;;;;;1.58;1.42;;;;;;;1.24;100.00;98745.25;5137394;28;20047;-66
2023/01/04 07:25:17;;;;;;;1.67;1.27;;;;;;;1.08;100.00;98750.28;5137446;28;20043;-70
2023/01/04 07:27:43;;;;;;;3.03;1.60;;;;;;;1.09;100.00;98749.16;5136790;28;20043;-69
2023/01/04 07:30:11;;;;;;;1.65;1.55;;;;;;;1.13;100.00;98753.63;5137401;28;20116;-66
2023/01/04 07:32:37;;;;;;;4.13;1.98;;;;;;;1.15;100.00;98759.50;5137443;28;20066;-65
2023/01/04 07:35:04;;;;;;;1.60;1.50;;;;;;;1.14;100.00;98759.81;5138957;28;20058;-63
2023/01/04 07:37:31;;;;;;;4.68;2.35;;;;;;;1.28;100.00;98768.59;5137630;27;20107;-69
2023/01/04 07:39:57;;;;;;;13.60;6.85;;;;;;;1.42;100.00;98763.88;5137057;28;20047;-68
2023/01/04 07:42:23;;;;;;;4.75;2.50;;;;;;;1.48;100.00;98755.63;5137188;27;20142;-70
2023/01/04 07:44:50;;;;;;;3.03;1.58;;;;;;;1.49;100.00;98751.81;5137010;28;20047;-68
2023/01/04 07:47:16;;;;;;;3.58;1.95;;;;;;;1.56;100.00;98755.63;5137309;28;20418;-71
2023/01/04 07:49:43;;;;;;;2.72;2.00;;;;;;;1.71;100.00;98754.41;5136837;28;20043;-68
2023/01/04 07:52:09;;;;;;;1.60;1.50;;;;;;;1.57;100.00;98742.94;5137306;28;20103;-67
2023/01/04 07:54:35;;;;;;;5.03;2.30;;;;;;;1.38;100.00;98737.81;5136870;28;20063;-70
2023/01/04 07:57:02;;;;;;;2.25;2.05;;;;;;;1.33;100.00;98741.47;5136734;28;20157;-67
2023/01/04 07:59:28;;;;;;;11.85;4.88;;;;;;;1.28;100.00;98738.09;5136996;28;20051;-71
2023/01/04 08:01:54;;;;;;;8.32;3.13;;;;;;;1.12;100.00;98757.41;5136494;28;20101;-68
2023/01/04 08:04:22;;;;;;;11.35;4.88;;;;;;;1.49;100.00;98762.63;5136750;27;20051;-68
2023/01/04 08:06:50;;;;;;;12.07;7.25;;;;;;;1.49;100.00;98757.22;5136470;28;20054;-68
2023/01/04 08:09:17;;;;;;;3.75;2.20;;;;;;;1.43;100.00;98753.84;5136875;28;20051;-67
2023/01/04 08:11:43;;;;;;;3.83;1.65;;;;;;;1.52;100.00;98760.06;5136510;28;20417;-66
2023/01/04 08:14:10;;;;;;;4.15;1.67;;;;;;;1.34;100.00;98775.44;5136926;28;20309;-64
2023/01/04 08:16:38;;;;;;;4.28;1.55;;;;;;;1.46;100.00;98779.44;5137863;27;20073;-69
2023/01/04 08:19:06;;;;;;;6.40;1.50;;;;;;;1.22;100.00;98796.84;5140176;28;20047;-73
2023/01/04 08:21:34;;;;;;;10.63;2.60;;;;;;;2.64;100.00;98771.22;5140034;28;20107;-64
2023/01/04 08:24:02;;;;;;;2.67;1.13;;;;;;;2.41;100.00;98860.69;5140582;27;20051;-67
2023/01/04 08:26:29;;;;;;;3.38;1.10;;;;;;;1.77;100.00;98955.84;5139973;28;20078;-68
2023/01/04 08:28:55;;;;;;;2.53;1.13;;;;;;;1.81;100.00;98967.63;5140015;28;20055;-66
2023/01/04 08:31:24;;;;;;;1.42;1.23;;;;;;;1.71;100.00;98948.97;5140034;28;20050;-68
2023/01/04 08:33:51;;;;;;;2.92;1.50;;;;;;;1.70;100.00;98943.88;5140161;28;20047;-68
2023/01/04 08:36:19;;;;;;;1.35;1.25;;;;;;;1.60;100.00;98950.34;5140094;27;20055;-65
2023/01/04 08:38:46;;;;;;;3.22;1.63;;;;;;;1.54;100.00;98943.50;5139772;28;20146;-65
2023/01/04 08:41:13;;;;;;;2.92;1.42;;;;;;;1.44;100.00;98939.16;5140229;27;20061;-68
2023/01/04 08:43:39;;;;;;;2.95;1.33;;;;;;;1.34;100.00;98925.91;5139735;28;20301;-67
2023/01/04 08:46:06;;;;;;;1.90;1.30;;;;;;;1.43;100.00;98926.72;5140099;28;20051;-66
2023/01/04 08:48:33;;;;;;;8.07;1.23;;;;;;;1.34;100.00;98932.09;5139591;28;20055;-69
2023/01/04 08:51:00;;;;;;;2.10;1.00;;;;;;;1.38;100.00;98957.38;5139978;28;20145;-68
2023/01/04 08:53:27;;;;;;;1.08;1.00;;;;;;;1.21;100.00;98972.69;5139792;28;20226;-67
2023/01/04 08:55:54;;;;;;;1.27;1.00;;;;;;;1.36;100.00;98967.69;5139647;28;20386;-67
2023/01/04 08:58:21;;;;;;;2.25;1.38;;;;;;;1.58;100.00;98974.19;5139485;28;20061;-68
2023/01/04 09:00:48;;;;;;;8.18;1.17;;;;;;;1.75;100.00;98993.19;5139295;28;20051;-69
2023/01/04 09:03:14;;;;;;;1.33;1.23;;;;;;;1.60;100.00;99020.59;5139724;27;20053;-64
2023/01/04 09:05:40;;;;;;;3.78;2.05;;;;;;;1.80;100.00;99003.06;5139426;28;20046;-65
2023/01/04 09:08:07;;;;;;;3.80;1.10;;;;;;;1.87;100.00;99001.50;5139513;27;20297;-69
2023/01/04 09:10:36;;;;;;;2.72;1.33;;;;;;;1.83;100.00;98992.44;5139287;28;20047;-68
2023/01/04 09:13:02;;;;;;;2.35;1.23;;;;;;;1.84;100.00;99012.94;5139566;28;20059;-64
2023/01/04 09:15:29;;;;;;;1.88;1.13;;;;;;;1.80;100.00;99011.16;5139090;28;20052;-67
2023/01/04 09:17:55;;;;;;;4.32;2.00;;;;;;;1.63;100.00;98979.44;5139554;28;20344;-63
2023/01/04 09:20:21;;;;;;;2.30;1.30;;;;;;;1.94;100.00;98957.03;5139335;28;20047;-64
2023/01/04 09:22:48;;;;;;;1.20;1.10;;;;;;;1.98;100.00;98988.50;5138935;28;20100;-64
2023/01/04 09:25:14;;;;;;;0.88;0.82;;;;;;;2.15;100.00;99019.44;5139035;27;20048;-66
2023/01/04 09:27:40;;;;;;;2.70;1.35;;;;;;;1.79;100.00;99039.31;5138199;27;20422;-66
2023/01/04 09:30:08;;;;;;;3.08;1.35;;;;;;;1.90;100.00;99043.34;5139176;28;20051;-64
2023/01/04 09:32:35;;;;;;;1.27;1.15;;;;;;;2.05;100.00;99061.06;5138976;28;20200;-63
2023/01/04 09:35:01;;;;;;;1.70;0.82;;;;;;;2.19;100.00;99071.78;5139197;28;20055;-66
2023/01/04 09:37:28;;;;;;;1.45;1.05;;;;;;;2.16;100.00;99069.72;5138797;28;20051;-62
2023/01/04 09:39:54;;;;;;;2.60;1.60;;;;;;;2.10;100.00;99112.34;5139169;27;20108;-66
2023/01/04 09:42:26;;;;;;;0.70;0.70;;;;;;;2.06;100.00;99104.00;5138742;28;20309;-63
2023/01/04 09:45:00;;;;;;;2.72;1.02;;;;;;;2.00;100.00;99113.38;5139280;28;20047;-66
2023/01/04 09:47:34;;;;;;;0.82;0.75;;;;;;;2.25;100.00;99098.41;5139258;28;20051;-63
2023/01/04 09:50:05;;;;;;;15.43;5.72;;;;;;;2.25;100.00;99105.72;5138668;28;20071;-65
2023/01/04 09:52:42;;;;;;;5.72;2.33;;;;;;;2.36;100.00;99079.97;5138734;27;20061;-63
2023/01/04 09:55:17;;;;;;;1.73;0.88;;;;;;;2.33;100.00;99073.31;5138622;28;20043;-63
2023/01/04 09:57:48;;;;;;;1.92;0.98;;;;;;;2.44;100.00;99094.66;5138985;27;20106;-67
2023/01/04 10:00:19;;;;;;;1.05;0.90;;;;;;;2.68;100.00;99105.09;5138613;28;20047;-66
2023/01/04 10:02:50;;;;;;;1.42;0.85;;;;;;;2.66;100.00;99127.03;5138957;28;20426;-67
2023/01/04 10:05:22;;;;;;;0.70;0.70;;;;;;;2.50;100.00;99123.16;5138537;27;20051;-67
2023/01/04 10:07:48;;;;;;;1.95;1.42;;;;;;;2.61;100.00;99115.59;5138774;28;20043;-67
2023/01/04 10:10:18;;;;;;;0.80;0.80;;;;;;;2.55;100.00;99121.13;5138946;28;20127;-63
2023/01/04 10:12:55;;;;;;;3.08;1.23;;;;;;;2.52;100.00;99140.69;5138410;28;20397;-64
2023/01/04 10:15:33;;;;;;;5.10;1.20;;;;;;;2.73;100.00;99134.72;5138937;28;20043;-64
2023/01/04 10:18:18;;;;;;;3.28;0.98;;;;;;;2.71;100.00;99156.69;5137983;28;20061;-65
2023/01/04 10:21:12;;;;;;;3.10;0.98;;;;;;;2.45;100.00;99140.34;5138587;27;20051;-64
2023/01/04 10:23:52;;;;;;;1.13;0.90;;;;;;;2.41;100.00;99138.59;5138372;28;20061;-68
2023/01/04 10:26:25;;;;;;;1.50;1.33;;;;;;;2.51;100.00;99112.03;5137944;28;20108;-67
2023/01/04 10:29:24;;;;;;;0.90;0.90;;;;;;;3.14;100.00;99092.94;5138118;28;20107;-69
2023/01/04 10:31:55;;;;;;;1.40;0.80;;;;;;;2.63;100.00;99132.28;5137844;28;20057;-63
2023/01/04 10:34:25;;;;;;;0.70;0.70;;;;;;;2.33;100.00;99156.34;5138317;28;20046;-65
2023/01/04 10:36:57;;;;;;;1.58;0.90;;;;;;;2.16;100.00;99153.56;5138062;27;20057;-66
2023/01/04 10:39:28;;;;;;;1.27;0.80;;;;;;;2.10;100.00;99137.47;5136883;27;20431;-64
2023/01/04 10:41:58;;;;;;;1.30;0.90;;;;;;;2.11;100.00;99122.03;5137695;28;20396;-63
2023/01/04 10:44:37;;;;;;;1.27;0.77;;;;;;;2.16;100.00;99119.19;5138032;28;20117;-66
2023/01/04 10:47:09;;;;;;;1.10;0.80;;;;;;;2.16;100.00;99107.56;5137979;27;20047;-66
2023/01/04 10:49:43;;;;;;;2.45;1.20;;;;;;;2.33;100.00;99077.88;5137603;28;20055;-68
2023/01/04 10:52:16;;;;;;;3.92;1.05;;;;;;;2.58;100.00;99109.69;5137817;27;20074;-65
2023/01/04 10:54:48;;;;;;;1.50;1.13;;;;;;;2.56;100.00;99121.91;5137372;28;20127;-63
2023/01/04 10:57:20;;;;;;;6.50;1.35;;;;;;;2.74;100.00;99098.44;5137421;28;20051;-68
2023/01/04 10:59:53;;;;;;;0.85;0.80;;;;;;;2.74;100.00;99104.63;5137978;28;20047;-66
2023/01/04 11:02:26;;;;;;;2.22;1.40;;;;;;;2.65;100.00;99133.56;5137387;28;20065;-64
2023/01/04 11:04:59;;;;;;;0.85;0.85;;;;;;;2.83;100.00;99127.13;5137649;28;20069;-67
2023/01/04 11:07:31;;;;;;;3.22;1.00;;;;;;;2.97;100.00;99127.00;5137372;28;20058;-66
2023/01/04 11:10:03;;;;;;;2.88;1.17;;;;;;;3.08;100.00;99130.19;5137904;28;20323;-65
2023/01/04 11:12:29;;;;;;;2.22;1.23;;;;;;;3.34;100.00;99118.63;5137397;28;20053;-69
2023/01/04 11:14:56;;;;;;;3.45;1.27;;;;;;;3.32;100.00;99131.66;5137812;28;20144;-69
2023/01/04 11:17:23;;;;;;;4.07;1.20;;;;;;;3.23;100.00;99134.34;5137256;28;20059;-60
2023/01/04 11:19:50;;;;;;;4.35;1.45;;;;;;;3.13;100.00;99142.78;5137513;28;20055;-67
2023/01/04 11:22:21;;;;;;;1.90;1.23;;;;;;;3.37;100.00;99143.16;5137189;28;20065;-62
2023/01/04 11:24:54;;;;;;;1.08;0.80;;;;;;;3.37;100.00;99142.38;5137151;28;20051;-70
2023/01/04 11:27:25;;;;;;;2.33;1.10;;;;;;;3.25;100.00;99146.47;5137708;27;20354;-65
2023/01/04 11:29:56;;;;;;;2.47;0.90;;;;;;;3.52;100.00;99150.00;5137174;28;20061;-63
2023/01/04 11:32:34;;;;;;;1.30;1.10;;;;;;;3.22;100.00;99149.03;5137442;27;20051;-68
2023/01/04 11:35:01;;;;;;;1.50;1.10;;;;;;;3.18;100.00;99134.53;5137261;28;20062;-68
2023/01/04 11:37:32;;;;;;;2.55;1.33;;;;;;;2.92;100.00;99139.88;5137508;28;20419;-63
2023/01/04 11:40:18;;;;;;;3.03;0.90;;;;;;;2.51;100.00;99113.94;5136968;28;20408;-68
2023/01/04 11:42:45;;;;;;;1.60;1.00;;;;;;;2.34;100.00;99093.81;5136761;28;20047;-64
2023/01/04 11:45:21;;;;;;;1.77;1.00;;;;;;;2.30;100.00;99078.50;5137281;27;20051;-63
2023/01/04 11:47:49;;;;;;;1.60;1.10;;;;;;;2.17;100.00;99066.72;5136872;28;20393;-66
2023/01/04 11:50:41;;;;;;;1.58;1.20;;;;;;;2.09;100.00;99059.34;5137207;28;20316;-62
2023/01/04 11:53:25;;;;;;;5.85;1.50;;;;;;;1.70;100.00;99035.75;5140800;28;20103;-65
2023/01/04 11:56:12;;;;;;;1.45;1.23;;;;;;;1.94;100.00;99000.28;5140730;28;20374;-66
2023/01/04 11:58:38;;;;;;;1.73;1.58;;;;;;;1.88;100.00;98999.59;5140695;28;20054;-66
2023/01/04 12:01:05;;;;;;;10.13;1.40;;;;;;;2.01;100.00;98960.84;5140299;28;20047;-63
2023/01/04 12:03:36;;;;;;;2.53;1.40;;;;;;;1.94;100.00;98957.03;5140617;28;20042;-63
2023/01/04 12:06:06;;;;;;;4.00;1.92;;;;;;;1.96;100.00;98943.97;5140379;28;20047;-59
2023/01/04 12:08:35;;;;;;;3.97;2.00;;;;;;;1.79;100.00;98939.28;5140692;28;20054;-67
2023/01/04 12:11:05;;;;;;;6.22;2.17;;;;;;;1.58;100.00;98923.63;5140293;28;20063;-61
2023/01/04 12:13:32;;;;;;;4.07;2.47;;;;;;;1.65;100.00;98850.22;5140732;28;20043;-68
2023/01/04 12:16:12;;;;;;;8.65;2.80;;;;;;;1.49;100.00;98844.44;5140451;28;20324;-62
2023/01/04 12:18:41;;;;;;;2.92;2.42;;;;;;;1.37;100.00;98823.44;5140071;28;20142;-66
2023/01/04 12:21:16;;;;;;;5.25;3.40;;;;;;;1.20;100.00;98826.09;5140513;28;20054;-66
2023/01/04 12:23:42;;;;;;;3.10;2.50;;;;;;;1.48;100.00;98839.38;5139845;28;20046;-65
2023/01/04 12:26:11;;;;;;;2.33;2.13;;;;;;;1.38;100.00;98849.34;5140109;28;20103;-68
2023/01/04 12:28:40;;;;;;;4.25;2.67;;;;;;;0.96;100.00;98820.22;5139736;28;20443;-65